createdAt,value
2022-11-18T00:02:16.765Z,7.80
2022-11-18T00:04:44.511Z,7.80
2022-11-18T00:07:12.519Z,7.90
2022-11-18T00:09:41.656Z,7.90
2022-11-18T00:12:27.106Z,7.90
2022-11-18T00:14:54.875Z,7.90
2022-11-18T00:17:22.590Z,7.90
2022-11-18T00:19:50.325Z,7.90
2022-11-18T00:22:18.149Z,7.90
2022-11-18T00:24:47.245Z,7.90
2022-11-18T00:27:15.041Z,7.90
2022-11-18T00:29:43.197Z,7.90
2022-11-18T00:32:10.951Z,7.90
2022-11-18T00:34:38.676Z,7.90
2022-11-18T00:37:06.475Z,7.90
2022-11-18T00:39:34.197Z,7.90
2022-11-18T00:42:20.711Z,7.90
2022-11-18T00:44:48.435Z,7.80
2022-11-18T00:47:16.209Z,7.80
2022-11-18T00:49:43.948Z,7.80
2022-11-18T00:52:11.749Z,7.80
2022-11-18T00:54:39.520Z,7.80
2022-11-18T00:57:08.621Z,7.80
2022-11-18T00:59:36.380Z,7.70
2022-11-18T01:02:04.205Z,7.80
2022-11-18T01:04:32.048Z,7.80
2022-11-18T01:06:59.820Z,7.80
2022-11-18T01:09:27.596Z,7.80
2022-11-18T01:12:13.061Z,7.80
2022-11-18T01:14:42.268Z,7.80
2022-11-18T01:17:10.010Z,7.80
2022-11-18T01:19:37.795Z,7.80
2022-11-18T01:22:05.853Z,7.90
2022-11-18T01:24:34.839Z,7.70
2022-11-18T01:27:03.003Z,7.80
2022-11-18T01:29:30.777Z,7.70
2022-11-18T01:34:47.589Z,7.70
2022-11-18T01:37:15.345Z,7.70
2022-11-18T01:39:43.052Z,7.70
2022-11-18T01:42:16.198Z,7.70
2022-11-18T01:45:09.429Z,7.60
2022-11-18T01:47:43.099Z,7.60
2022-11-18T01:50:11.638Z,7.60
2022-11-18T01:52:40.495Z,7.60
2022-11-18T01:55:13.621Z,7.60
2022-11-18T01:57:42.947Z,7.60
2022-11-18T02:00:12.423Z,7.60
2022-11-18T02:02:41.533Z,7.60
2022-11-18T02:05:11.741Z,7.60
2022-11-18T02:07:42.773Z,7.60
2022-11-18T02:10:17.694Z,7.60
2022-11-18T02:12:45.620Z,7.60
2022-11-18T02:15:13.472Z,7.60
2022-11-18T02:17:50.732Z,7.50
2022-11-18T02:20:34.947Z,7.50
2022-11-18T02:23:33.028Z,7.50
2022-11-18T02:26:28.787Z,7.50
2022-11-18T02:29:09.412Z,7.50
2022-11-18T02:31:45.590Z,7.50
2022-11-18T02:34:21.357Z,7.50
2022-11-18T02:36:56.074Z,7.60
2022-11-18T02:39:30.742Z,7.50
2022-11-18T02:42:02.760Z,7.60
2022-11-18T02:44:32.574Z,7.60
2022-11-18T02:47:04.654Z,7.60
2022-11-18T02:49:36.486Z,7.60
2022-11-18T02:52:05.670Z,7.60
2022-11-18T02:54:35.124Z,7.60
2022-11-18T02:57:04.094Z,7.60
2022-11-18T02:59:33.371Z,7.60
2022-11-18T03:02:01.186Z,7.60
2022-11-18T03:04:29.487Z,7.50
2022-11-18T03:07:05.646Z,7.50
2022-11-18T03:09:36.180Z,7.50
2022-11-18T03:12:13.372Z,7.50
2022-11-18T03:14:50.497Z,7.50
2022-11-18T03:17:24.910Z,7.50
2022-11-18T03:20:05.256Z,7.50
2022-11-18T03:22:40.397Z,7.50
2022-11-18T03:25:12.710Z,7.50
2022-11-18T03:27:47.669Z,7.50
2022-11-18T03:30:19.846Z,7.50
2022-11-18T03:32:53.050Z,7.50
2022-11-18T03:35:24.313Z,7.50
2022-11-18T03:37:56.391Z,7.50
2022-11-18T03:40:27.811Z,7.50
2022-11-18T03:43:01.329Z,7.50
2022-11-18T03:45:35.557Z,7.50
2022-11-18T03:48:08.511Z,7.50
2022-11-18T03:50:40.451Z,7.50
2022-11-18T03:53:10.010Z,7.50
2022-11-18T03:55:41.664Z,7.50
2022-11-18T03:58:14.679Z,7.60
2022-11-18T04:00:46.726Z,7.60
2022-11-18T04:03:15.108Z,7.60
2022-11-18T04:05:44.275Z,7.60
2022-11-18T04:08:15.786Z,7.60
2022-11-18T04:10:50.078Z,7.60
2022-11-18T04:13:23.440Z,7.60
2022-11-18T04:15:54.597Z,7.60
2022-11-18T04:18:22.882Z,7.60
2022-11-18T04:20:50.635Z,7.60
2022-11-18T04:23:18.390Z,7.60
2022-11-18T04:25:46.111Z,7.60
2022-11-18T04:28:13.820Z,7.60
2022-11-18T04:30:41.540Z,7.70
2022-11-18T04:33:10.568Z,7.70
2022-11-18T04:35:38.305Z,7.70
2022-11-18T04:38:06.020Z,7.70
2022-11-18T04:40:33.915Z,7.70
2022-11-18T04:43:01.616Z,7.70
2022-11-18T04:45:29.426Z,7.70
2022-11-18T04:48:03.090Z,7.70
2022-11-18T04:50:32.773Z,7.70
2022-11-18T04:53:00.468Z,7.70
2022-11-18T04:55:28.203Z,7.70
2022-11-18T04:57:55.912Z,7.70
2022-11-18T05:00:23.892Z,7.70
2022-11-18T05:02:51.625Z,7.70
2022-11-18T05:05:19.324Z,7.70
2022-11-18T05:07:48.412Z,7.80
2022-11-18T05:10:16.297Z,7.70
2022-11-18T05:12:49.075Z,7.70
2022-11-18T05:15:17.224Z,7.70
2022-11-18T05:17:45.176Z,7.70
2022-11-18T05:20:13.657Z,7.70
2022-11-18T05:22:41.992Z,7.70
2022-11-18T05:25:11.460Z,7.70
2022-11-18T05:27:39.200Z,7.70
2022-11-18T05:30:07.723Z,7.80
2022-11-18T05:32:35.434Z,7.80
2022-11-18T05:35:03.159Z,7.70
2022-11-18T05:37:33.311Z,7.70
2022-11-18T05:40:01.060Z,7.80
2022-11-18T05:42:47.468Z,7.80
2022-11-18T05:45:15.977Z,7.80
2022-11-18T05:47:57.600Z,7.80
2022-11-18T05:50:25.297Z,7.80
2022-11-18T05:52:53.117Z,7.80
2022-11-18T05:55:23.267Z,7.80
2022-11-18T05:57:52.295Z,7.80
2022-11-18T06:00:20.086Z,7.80
2022-11-18T06:02:50.919Z,7.80
2022-11-18T06:05:21.659Z,7.80
2022-11-18T06:07:49.475Z,7.80
2022-11-18T06:10:21.686Z,7.80
2022-11-18T06:12:54.507Z,7.80
2022-11-18T06:15:25.400Z,7.80
2022-11-18T06:17:58.492Z,7.80
2022-11-18T06:20:27.089Z,7.80
2022-11-18T06:22:57.339Z,7.80
2022-11-18T06:25:25.803Z,7.80
2022-11-18T06:27:57.296Z,7.80
2022-11-18T06:30:25.015Z,7.80
2022-11-18T06:32:52.723Z,7.80
2022-11-18T06:35:20.658Z,7.90
2022-11-18T06:37:48.529Z,7.80
2022-11-18T06:40:16.566Z,7.80
2022-11-18T06:43:01.947Z,7.80
2022-11-18T06:45:31.389Z,7.90
2022-11-18T06:48:00.169Z,7.90
2022-11-18T06:50:28.075Z,7.80
2022-11-18T06:52:55.796Z,7.90
2022-11-18T06:55:23.617Z,7.80
2022-11-18T06:57:51.372Z,7.80
2022-11-18T07:00:19.726Z,7.80
2022-11-18T07:02:48.789Z,7.90
2022-11-18T07:05:16.600Z,7.90
2022-11-18T07:07:44.395Z,7.90
2022-11-18T07:10:12.183Z,7.90
2022-11-18T07:12:39.926Z,7.90
2022-11-18T07:15:08.728Z,7.90
2022-11-18T07:17:36.452Z,7.90
2022-11-18T07:20:06.102Z,7.90
2022-11-18T07:22:33.809Z,7.90
2022-11-18T07:25:01.772Z,7.90
2022-11-18T07:27:29.484Z,8.00
2022-11-18T07:29:57.206Z,8.00
2022-11-18T07:32:24.985Z,8.00
2022-11-18T07:34:52.713Z,8.00
2022-11-18T07:37:21.744Z,8.00
2022-11-18T07:39:49.495Z,8.00
2022-11-18T07:42:17.229Z,8.00
2022-11-18T07:44:44.962Z,8.00
2022-11-18T07:47:12.674Z,8.00
2022-11-18T07:49:40.412Z,8.00
2022-11-18T07:52:08.275Z,8.00
2022-11-18T07:54:37.339Z,8.00
2022-11-18T07:57:05.149Z,8.00
2022-11-18T07:59:32.832Z,8.00
2022-11-18T08:02:00.656Z,8.00
2022-11-18T08:04:28.577Z,8.00
2022-11-18T08:06:56.362Z,8.00
2022-11-18T08:09:24.162Z,8.10
2022-11-18T08:11:53.184Z,8.00
2022-11-18T08:14:21.913Z,8.10
2022-11-18T08:16:49.636Z,8.10
2022-11-18T08:19:17.761Z,8.10
2022-11-18T08:21:46.026Z,8.10
2022-11-18T08:24:13.818Z,8.10
2022-11-18T08:26:41.527Z,8.10
2022-11-18T08:29:10.630Z,8.10
2022-11-18T08:31:38.308Z,8.10
2022-11-18T08:34:08.104Z,8.10
2022-11-18T08:36:38.032Z,8.10
2022-11-18T08:39:08.453Z,8.20
2022-11-18T08:41:37.972Z,8.20
2022-11-18T08:44:06.959Z,8.20
2022-11-18T08:46:36.032Z,8.20
2022-11-18T08:49:03.835Z,8.20
2022-11-18T08:51:31.827Z,8.20
2022-11-18T08:53:59.627Z,8.30
2022-11-18T08:56:27.773Z,8.30
2022-11-18T08:58:55.565Z,8.30
2022-11-18T09:01:23.639Z,8.30
2022-11-18T09:03:52.787Z,8.30
2022-11-18T09:06:22.580Z,8.30
2022-11-18T09:08:50.287Z,8.30
2022-11-18T09:11:19.479Z,8.30
2022-11-18T09:14:26.031Z,8.40
2022-11-18T09:16:36.433Z,8.40
2022-11-18T09:19:24.843Z,8.40
2022-11-18T09:21:53.910Z,8.40
2022-11-18T09:24:21.692Z,8.50
2022-11-18T09:26:49.831Z,8.40
2022-11-18T09:29:17.609Z,8.50
2022-11-18T09:31:45.818Z,8.50
2022-11-18T09:34:14.917Z,8.50
2022-11-18T09:36:42.639Z,8.50
2022-11-18T09:39:10.399Z,8.50
2022-11-18T09:41:46.067Z,8.60
2022-11-18T09:44:36.782Z,8.60
2022-11-18T09:47:15.415Z,8.70
2022-11-18T09:49:46.416Z,8.70
2022-11-18T09:52:19.442Z,8.70
2022-11-18T09:54:47.808Z,8.70
2022-11-18T09:57:17.465Z,8.70
2022-11-18T09:59:46.200Z,8.80
2022-11-18T10:02:34.369Z,8.80
2022-11-18T10:05:15.380Z,8.90
2022-11-18T10:07:49.666Z,9.00
2022-11-18T10:10:22.115Z,9.00
2022-11-18T10:12:56.503Z,9.00
2022-11-18T10:15:31.077Z,9.00
2022-11-18T10:18:07.553Z,9.10
2022-11-18T10:20:51.650Z,9.10
2022-11-18T10:23:25.173Z,9.10
2022-11-18T10:25:54.083Z,9.10
2022-11-18T10:28:24.520Z,9.10
2022-11-18T10:30:53.061Z,9.10
2022-11-18T10:33:29.385Z,9.20
2022-11-18T10:36:13.639Z,9.20
2022-11-18T10:38:48.468Z,9.20
2022-11-18T10:41:20.043Z,9.30
2022-11-18T10:43:52.237Z,9.30
2022-11-18T10:46:26.960Z,9.40
2022-11-18T10:49:16.262Z,9.40
2022-11-18T10:51:47.373Z,9.40
2022-11-18T10:54:17.621Z,9.50
2022-11-18T10:56:48.842Z,9.50
2022-11-18T10:59:27.307Z,9.50
2022-11-18T11:02:05.389Z,9.60
2022-11-18T11:04:39.203Z,9.60
2022-11-18T11:07:27.792Z,9.60
2022-11-18T11:10:19.326Z,9.70
2022-11-18T11:12:52.598Z,9.70
2022-11-18T11:15:25.861Z,9.80
2022-11-18T11:18:12.895Z,9.90
2022-11-18T11:20:41.140Z,10.00
2022-11-18T11:23:12.604Z,10.10
2022-11-18T11:28:41.211Z,10.30
2022-11-18T11:31:16.262Z,10.40
2022-11-18T11:33:51.805Z,10.50
2022-11-18T11:36:33.301Z,10.50
2022-11-18T11:39:39.587Z,10.50
2022-11-18T11:42:16.203Z,10.50
2022-11-18T11:44:55.836Z,10.50
2022-11-18T11:47:49.961Z,10.50
2022-11-18T11:50:28.648Z,10.50
2022-11-18T11:53:15.836Z,10.60
2022-11-18T11:56:00.242Z,10.60
2022-11-18T11:58:52.276Z,10.70
2022-11-18T12:01:27.341Z,10.70
2022-11-18T12:04:03.894Z,10.70
2022-11-18T12:06:31.767Z,10.60
2022-11-18T12:09:07.099Z,10.60
2022-11-18T12:11:42.245Z,10.60
2022-11-18T12:14:17.316Z,10.60
2022-11-18T12:16:53.785Z,10.60
2022-11-18T12:19:23.256Z,10.60
2022-11-18T12:22:05.184Z,10.50
2022-11-18T12:24:38.395Z,10.50
2022-11-18T12:27:13.998Z,10.50
2022-11-18T12:29:53.831Z,10.50
2022-11-18T12:32:31.032Z,10.40
2022-11-18T12:35:01.519Z,10.40
2022-11-18T12:38:00.655Z,10.30
2022-11-18T12:40:40.054Z,10.30
2022-11-18T12:43:45.170Z,10.30
2022-11-18T12:46:55.646Z,10.30
2022-11-18T12:50:02.529Z,10.30
2022-11-18T12:52:50.004Z,10.30
2022-11-18T12:55:21.629Z,10.30
2022-11-18T12:57:49.428Z,10.30
2022-11-18T13:00:29.482Z,10.30
2022-11-18T13:02:59.136Z,10.30
2022-11-18T13:05:28.367Z,10.30
2022-11-18T13:08:14.484Z,10.20
2022-11-18T13:10:54.678Z,10.20
2022-11-18T13:13:27.180Z,10.20
2022-11-18T13:16:16.274Z,10.20
2022-11-18T13:18:51.822Z,10.10
2022-11-18T13:21:42.860Z,10.10
2022-11-18T13:24:13.696Z,10.10
2022-11-18T13:26:42.909Z,10.10
2022-11-18T13:29:29.626Z,10.10
2022-11-18T13:32:13.751Z,10.10
2022-11-18T13:34:47.840Z,10.00
2022-11-18T13:37:19.844Z,10.00
2022-11-18T13:39:49.564Z,10.00
2022-11-18T13:42:20.956Z,10.00
2022-11-18T13:44:55.108Z,10.00
2022-11-18T13:47:33.129Z,9.90
2022-11-18T13:50:07.995Z,9.90
2022-11-18T13:52:39.446Z,9.90
2022-11-18T13:55:13.810Z,9.90
2022-11-18T13:57:41.910Z,9.90
2022-11-18T14:00:22.073Z,9.90
2022-11-18T14:02:57.406Z,9.90
2022-11-18T14:05:25.939Z,9.90
2022-11-18T14:08:06.348Z,9.90
2022-11-18T14:10:41.294Z,9.80
2022-11-18T14:13:23.776Z,9.80
2022-11-18T14:15:51.952Z,9.80
2022-11-18T14:18:26.824Z,9.70
2022-11-18T14:20:55.916Z,9.70
2022-11-18T14:23:28.854Z,9.70
2022-11-18T14:25:57.696Z,9.60
2022-11-18T14:28:28.485Z,9.60
2022-11-18T14:30:59.845Z,9.60
2022-11-18T14:33:30.482Z,9.50
2022-11-18T14:36:00.281Z,9.50
2022-11-18T14:38:52.090Z,9.50
2022-11-18T14:41:43.969Z,9.50
2022-11-18T14:44:13.282Z,9.50
2022-11-18T14:46:43.215Z,9.50
2022-11-18T14:49:17.124Z,9.40
2022-11-18T14:51:45.316Z,9.40
2022-11-18T14:54:15.601Z,9.40
2022-11-18T14:56:46.287Z,9.40
2022-11-18T14:59:14.871Z,9.40
2022-11-18T15:01:43.896Z,9.30
2022-11-18T15:04:15.582Z,9.30
2022-11-18T15:06:43.462Z,9.30
2022-11-18T15:09:13.228Z,9.20
2022-11-18T15:11:41.145Z,9.20
2022-11-18T15:14:08.907Z,9.20
2022-11-18T15:16:37.063Z,9.10
2022-11-18T15:19:07.116Z,9.10
2022-11-18T15:21:36.175Z,9.10
2022-11-18T15:24:03.893Z,9.10
2022-11-18T15:26:37.181Z,9.10
2022-11-18T15:29:05.249Z,9.00
2022-11-18T15:31:32.936Z,9.00
2022-11-18T15:34:06.330Z,9.00
2022-11-18T15:36:36.260Z,9.00
2022-11-18T15:39:04.218Z,8.90
2022-11-18T15:41:33.098Z,8.80
2022-11-18T15:44:02.741Z,8.80
2022-11-18T15:46:30.961Z,8.70
2022-11-18T15:49:00.034Z,8.70
2022-11-18T15:51:30.108Z,8.70
2022-11-18T15:53:59.286Z,8.60
2022-11-18T15:56:29.103Z,8.60
2022-11-18T15:58:58.288Z,8.50
2022-11-18T16:01:27.476Z,8.50
2022-11-18T16:03:55.682Z,8.40
2022-11-18T16:06:24.096Z,8.40
2022-11-18T16:08:57.632Z,8.30
2022-11-18T16:11:47.008Z,8.20
2022-11-18T16:14:17.500Z,8.20
2022-11-18T16:16:47.052Z,8.20
2022-11-18T16:19:17.719Z,8.10
2022-11-18T16:21:47.974Z,8.10
2022-11-18T16:24:18.380Z,8.00
2022-11-18T16:26:48.139Z,8.00
2022-11-18T16:29:48.300Z,7.90
2022-11-18T16:32:14.007Z,7.90
2022-11-18T16:34:41.714Z,7.90
2022-11-18T16:37:09.482Z,7.80
2022-11-18T16:39:37.211Z,7.80
2022-11-18T16:42:08.965Z,7.80
2022-11-18T16:44:37.515Z,7.80
2022-11-18T16:47:13.914Z,7.70
2022-11-18T16:49:42.743Z,7.70
2022-11-18T16:52:10.513Z,7.60
2022-11-18T16:54:44.655Z,7.60
2022-11-18T16:57:15.431Z,7.50
2022-11-18T16:59:43.230Z,7.50
2022-11-18T17:02:12.689Z,7.50
2022-11-18T17:04:40.499Z,7.40
2022-11-18T17:07:08.248Z,7.40
2022-11-18T17:09:36.143Z,7.30
2022-11-18T17:12:04.163Z,7.30
2022-11-18T17:14:33.893Z,7.30
2022-11-18T17:17:01.611Z,7.30
2022-11-18T17:19:29.364Z,7.20
2022-11-18T17:21:57.071Z,7.20
2022-11-18T17:24:25.414Z,7.20
2022-11-18T17:26:53.264Z,7.10
2022-11-18T17:29:21.797Z,7.10
2022-11-18T17:31:51.008Z,7.00
2022-11-18T17:34:19.250Z,7.00
2022-11-18T17:36:47.134Z,7.00
2022-11-18T17:39:15.888Z,7.00
2022-11-18T17:42:01.548Z,6.90
2022-11-18T17:44:29.705Z,6.90
2022-11-18T17:46:58.764Z,6.90
2022-11-18T17:49:26.580Z,6.90
2022-11-18T17:51:54.328Z,6.90
2022-11-18T17:54:22.946Z,6.80
2022-11-18T17:56:52.039Z,6.80
2022-11-18T17:59:19.969Z,6.80
2022-11-18T18:01:48.150Z,6.80
2022-11-18T18:04:20.517Z,6.80
2022-11-18T18:06:51.083Z,6.70
2022-11-18T18:09:18.980Z,6.80
2022-11-18T18:11:46.946Z,6.80
2022-11-18T18:14:13.777Z,6.70
2022-11-18T18:16:44.156Z,6.70
2022-11-18T18:19:13.821Z,6.70
2022-11-18T18:21:43.129Z,6.70
2022-11-18T18:24:11.796Z,6.70
2022-11-18T18:26:39.833Z,6.70
2022-11-18T18:29:07.612Z,6.70
2022-11-18T18:31:36.008Z,6.70
2022-11-18T18:34:04.343Z,6.70
2022-11-18T18:36:32.105Z,6.60
2022-11-18T18:39:02.257Z,6.60
2022-11-18T18:41:30.164Z,6.60
2022-11-18T18:43:58.008Z,6.60
2022-11-18T18:46:28.581Z,6.60
2022-11-18T18:48:58.216Z,6.60
2022-11-18T18:51:26.571Z,6.60
2022-11-18T18:53:55.674Z,6.60
2022-11-18T18:56:24.909Z,6.60
2022-11-18T18:58:52.702Z,6.60
2022-11-18T19:01:21.005Z,6.50
2022-11-18T19:03:49.375Z,6.50
2022-11-18T19:06:50.588Z,6.50
2022-11-18T19:09:09.431Z,6.50
2022-11-18T19:11:57.614Z,6.50
2022-11-18T19:14:26.113Z,6.50
2022-11-18T19:16:54.664Z,6.60
2022-11-18T19:19:43.918Z,6.60
2022-11-18T19:22:13.314Z,6.60
2022-11-18T19:24:49.735Z,6.60
2022-11-18T19:27:19.941Z,6.60
2022-11-18T19:29:47.781Z,6.60
2022-11-18T19:32:15.937Z,6.60
2022-11-18T19:34:43.639Z,6.60
2022-11-18T19:37:11.392Z,6.60
2022-11-18T19:39:39.192Z,6.60
2022-11-18T19:42:07.422Z,6.60
2022-11-18T19:44:36.433Z,6.60
2022-11-18T19:47:04.180Z,6.60
2022-11-18T19:49:31.899Z,6.60
2022-11-18T19:51:59.594Z,6.60
2022-11-18T19:54:27.324Z,6.60
2022-11-18T19:56:55.074Z,6.70
2022-11-18T19:59:22.776Z,6.70
2022-11-18T20:01:51.962Z,6.70
2022-11-18T20:04:19.708Z,6.70
2022-11-18T20:06:47.581Z,6.70
2022-11-18T20:09:15.379Z,6.70
2022-11-18T20:11:44.798Z,6.70
2022-11-18T20:14:13.370Z,6.70
2022-11-18T20:16:41.699Z,6.70
2022-11-18T20:19:13.374Z,6.70
2022-11-18T20:21:43.139Z,6.60
2022-11-18T20:24:15.654Z,6.70
2022-11-18T20:26:44.059Z,6.70
2022-11-18T20:29:12.357Z,6.70
2022-11-18T20:31:40.106Z,6.70
2022-11-18T20:34:07.852Z,6.70
2022-11-18T20:36:37.407Z,6.70
2022-11-18T20:39:07.561Z,6.70
2022-11-18T20:41:36.223Z,6.70
2022-11-18T20:44:04.528Z,6.70
2022-11-18T20:46:33.174Z,6.70
2022-11-18T20:49:01.462Z,6.70
2022-11-18T20:51:29.896Z,6.70
2022-11-18T20:53:59.764Z,6.70
2022-11-18T20:56:28.609Z,6.70
2022-11-18T20:58:57.992Z,6.70
2022-11-18T21:01:27.086Z,6.70
2022-11-18T21:03:56.275Z,6.70
2022-11-18T21:06:26.171Z,6.70
2022-11-18T21:08:57.628Z,6.70
2022-11-18T21:11:27.267Z,6.70
2022-11-18T21:14:14.323Z,6.80
2022-11-18T21:16:44.497Z,6.80
2022-11-18T21:19:12.315Z,6.80
2022-11-18T21:21:44.984Z,6.80
2022-11-18T21:24:14.149Z,6.80
2022-11-18T21:26:43.900Z,6.80
2022-11-18T21:29:12.938Z,6.80
2022-11-18T21:31:41.238Z,6.80
2022-11-18T21:34:09.355Z,6.80
2022-11-18T21:36:44.188Z,6.80
2022-11-18T21:39:14.186Z,6.80
2022-11-18T21:41:43.869Z,6.90
2022-11-18T21:44:13.138Z,6.90
2022-11-18T21:46:42.135Z,6.90
2022-11-18T21:49:10.149Z,6.90
2022-11-18T21:51:38.171Z,6.90
2022-11-18T21:54:06.354Z,6.90
2022-11-18T21:56:34.231Z,6.90
2022-11-18T21:59:03.814Z,6.90
2022-11-18T22:01:33.121Z,7.00
2022-11-18T22:04:02.580Z,7.00
2022-11-18T22:06:32.455Z,6.90
2022-11-18T22:09:00.637Z,7.00
2022-11-18T22:11:28.630Z,7.00
2022-11-18T22:13:56.433Z,7.00
2022-11-18T22:16:26.620Z,7.00
2022-11-18T22:19:01.456Z,7.00
2022-11-18T22:21:31.920Z,7.00
2022-11-18T22:24:01.465Z,7.00
2022-11-18T22:26:30.072Z,7.00
2022-11-18T22:28:59.049Z,7.00
2022-11-18T22:31:29.138Z,7.00
2022-11-18T22:33:57.561Z,7.00
2022-11-18T22:36:27.325Z,7.10
2022-11-18T22:38:55.658Z,7.00
2022-11-18T22:41:42.822Z,7.00
2022-11-18T22:44:11.961Z,7.00
2022-11-18T22:46:42.438Z,7.10
2022-11-18T22:49:11.437Z,7.10
2022-11-18T22:51:39.838Z,7.10
2022-11-18T22:56:56.396Z,7.10
2022-11-18T22:59:24.313Z,7.10
2022-11-18T23:01:53.720Z,7.10
2022-11-18T23:04:21.762Z,7.10
2022-11-18T23:06:49.814Z,7.10
2022-11-18T23:09:18.012Z,7.10
2022-11-18T23:12:03.369Z,7.10
2022-11-18T23:14:31.324Z,7.10
2022-11-18T23:17:00.724Z,7.10
2022-11-18T23:19:28.457Z,7.10
2022-11-18T23:21:56.191Z,7.10
2022-11-18T23:24:23.942Z,7.10
2022-11-18T23:26:51.746Z,7.10
2022-11-18T23:29:20.200Z,7.10
2022-11-18T23:31:48.060Z,7.10
2022-11-18T23:34:17.864Z,7.10
2022-11-18T23:36:45.568Z,7.10
2022-11-18T23:39:14.458Z,7.20
2022-11-18T23:41:42.464Z,7.10
2022-11-18T23:44:10.202Z,7.20
2022-11-18T23:46:37.906Z,7.10
2022-11-18T23:49:09.041Z,7.10
2022-11-18T23:51:38.126Z,7.20
2022-11-18T23:54:06.099Z,7.10
2022-11-18T23:56:37.803Z,7.20
2022-11-18T23:59:06.448Z,7.10
